sensor_id;sensor_type;location;lat;lon;timestamp;pressure;altitude;pressure_sealevel;temperature;humidity
71107;BME280;58763;47.982;11.516;2023-04-09T00:01:40;94707.75;;;4.87;80.26
71107;BME280;58763;47.982;11.516;2023-04-09T00:04:06;94703.88;;;4.83;80.83
71107;BME280;58763;47.982;11.516;2023-04-09T00:06:32;94708.06;;;4.91;80.51
71107;BME280;58763;47.982;11.516;2023-04-09T00:08:57;94702.81;;;4.96;79.93
71107;BME280;58763;47.982;11.516;2023-04-09T00:11:23;94703.22;;;5.05;79.62
71107;BME280;58763;47.982;11.516;2023-04-09T00:13:48;94702.56;;;4.98;79.90
71107;BME280;58763;47.982;11.516;2023-04-09T00:16:14;94705.25;;;4.98;79.61
71107;BME280;58763;47.982;11.516;2023-04-09T00:18:39;94697.09;;;4.93;80.14
71107;BME280;58763;47.982;11.516;2023-04-09T00:21:05;94699.44;;;4.89;80.04
71107;BME280;58763;47.982;11.516;2023-04-09T00:23:33;94693.06;;;4.90;80.09
71107;BME280;58763;47.982;11.516;2023-04-09T00:26:00;94702.84;;;4.84;80.31
71107;BME280;58763;47.982;11.516;2023-04-09T00:28:25;94692.84;;;4.80;80.39
71107;BME280;58763;47.982;11.516;2023-04-09T00:30:51;94690.63;;;4.77;80.62
71107;BME280;58763;47.982;11.516;2023-04-09T00:33:17;94697.38;;;4.79;80.47
71107;BME280;58763;47.982;11.516;2023-04-09T00:35:42;94691.44;;;4.77;80.91
71107;BME280;58763;47.982;11.516;2023-04-09T00:38:08;94699.25;;;4.79;80.21
71107;BME280;58763;47.982;11.516;2023-04-09T00:40:33;94695.13;;;4.88;79.92
71107;BME280;58763;47.982;11.516;2023-04-09T00:42:59;94692.13;;;4.84;80.19
71107;BME280;58763;47.982;11.516;2023-04-09T00:45:25;94699.56;;;4.94;79.90
71107;BME280;58763;47.982;11.516;2023-04-09T00:47:51;94697.03;;;4.87;79.63
71107;BME280;58763;47.982;11.516;2023-04-09T00:50:16;94693.56;;;4.75;79.88
71107;BME280;58763;47.982;11.516;2023-04-09T00:52:42;94694.97;;;4.66;79.88
71107;BME280;58763;47.982;11.516;2023-04-09T00:55:08;94692.38;;;4.71;80.25
71107;BME280;58763;47.982;11.516;2023-04-09T00:57:34;94695.56;;;4.68;80.34
71107;BME280;58763;47.982;11.516;2023-04-09T01:00:00;94698.34;;;4.73;80.23
71107;BME280;58763;47.982;11.516;2023-04-09T01:02:26;94692.06;;;4.68;79.97
71107;BME280;58763;47.982;11.516;2023-04-09T01:04:52;94688.81;;;4.66;80.04
71107;BME280;58763;47.982;11.516;2023-04-09T01:10:13;94691.63;;;4.59;80.41
71107;BME280;58763;47.982;11.516;2023-04-09T01:15:28;94683.09;;;4.62;80.47
71107;BME280;58763;47.982;11.516;2023-04-09T01:18:04;94684.25;;;4.66;80.28
71107;BME280;58763;47.982;11.516;2023-04-09T01:23:31;94695.22;;;4.53;81.05
71107;BME280;58763;47.982;11.516;2023-04-09T01:29:01;94690.56;;;4.60;81.08
71107;BME280;58763;47.982;11.516;2023-04-09T01:31:34;94686.38;;;4.64;80.71
71107;BME280;58763;47.982;11.516;2023-04-09T01:34:01;94689.63;;;4.66;80.36
71107;BME280;58763;47.982;11.516;2023-04-09T01:36:29;94684.97;;;4.62;80.60
71107;BME280;58763;47.982;11.516;2023-04-09T01:38:55;94691.50;;;4.54;80.88
71107;BME280;58763;47.982;11.516;2023-04-09T01:41:22;94692.41;;;4.60;80.70
71107;BME280;58763;47.982;11.516;2023-04-09T01:43:50;94693.22;;;4.60;80.44
71107;BME280;58763;47.982;11.516;2023-04-09T01:46:17;94689.28;;;4.51;80.76
71107;BME280;58763;47.982;11.516;2023-04-09T01:48:45;94689.03;;;4.53;80.74
71107;BME280;58763;47.982;11.516;2023-04-09T01:51:12;94688.59;;;4.56;80.64
71107;BME280;58763;47.982;11.516;2023-04-09T01:53:41;94692.44;;;4.48;80.99
71107;BME280;58763;47.982;11.516;2023-04-09T01:56:07;94687.72;;;4.67;80.32
71107;BME280;58763;47.982;11.516;2023-04-09T01:58:33;94696.97;;;4.59;79.98
71107;BME280;58763;47.982;11.516;2023-04-09T02:03:39;94699.06;;;4.46;80.79
71107;BME280;58763;47.982;11.516;2023-04-09T02:06:10;94699.44;;;4.38;80.93
71107;BME280;58763;47.982;11.516;2023-04-09T02:08:38;94698.75;;;4.42;81.07
71107;BME280;58763;47.982;11.516;2023-04-09T02:11:07;94695.50;;;4.40;81.02
71107;BME280;58763;47.982;11.516;2023-04-09T02:13:34;94691.75;;;4.41;80.99
71107;BME280;58763;47.982;11.516;2023-04-09T02:16:02;94689.19;;;4.46;81.14
71107;BME280;58763;47.982;11.516;2023-04-09T02:18:29;94697.09;;;4.41;81.08
71107;BME280;58763;47.982;11.516;2023-04-09T02:20:56;94689.56;;;4.38;81.27
71107;BME280;58763;47.982;11.516;2023-04-09T02:23:22;94689.31;;;4.40;81.46
71107;BME280;58763;47.982;11.516;2023-04-09T02:25:48;94688.97;;;4.36;81.52
71107;BME280;58763;47.982;11.516;2023-04-09T02:28:14;94686.53;;;4.35;81.38
71107;BME280;58763;47.982;11.516;2023-04-09T02:30:40;94681.53;;;4.27;81.81
71107;BME280;58763;47.982;11.516;2023-04-09T02:33:05;94690.47;;;4.32;81.91
71107;BME280;58763;47.982;11.516;2023-04-09T02:35:31;94681.06;;;4.30;81.74
71107;BME280;58763;47.982;11.516;2023-04-09T02:37:57;94681.28;;;4.28;81.58
71107;BME280;58763;47.982;11.516;2023-04-09T02:40:22;94686.66;;;4.28;81.40
71107;BME280;58763;47.982;11.516;2023-04-09T02:42:49;94687.94;;;4.26;81.74
71107;BME280;58763;47.982;11.516;2023-04-09T02:45:15;94682.94;;;4.29;81.87
71107;BME280;58763;47.982;11.516;2023-04-09T02:47:40;94688.28;;;4.29;81.71
71107;BME280;58763;47.982;11.516;2023-04-09T02:50:06;94680.47;;;4.28;81.58
71107;BME280;58763;47.982;11.516;2023-04-09T02:52:32;94677.78;;;4.28;81.72
71107;BME280;58763;47.982;11.516;2023-04-09T02:54:57;94683.41;;;4.26;81.95
71107;BME280;58763;47.982;11.516;2023-04-09T02:57:23;94675.13;;;4.28;81.89
71107;BME280;58763;47.982;11.516;2023-04-09T02:59:49;94674.78;;;4.24;82.25
71107;BME280;58763;47.982;11.516;2023-04-09T03:02:14;94682.25;;;4.22;82.13
71107;BME280;58763;47.982;11.516;2023-04-09T03:04:40;94681.88;;;4.18;82.52
71107;BME280;58763;47.982;11.516;2023-04-09T03:07:05;94684.81;;;4.17;82.21
71107;BME280;58763;47.982;11.516;2023-04-09T03:09:31;94686.41;;;4.18;82.38
71107;BME280;58763;47.982;11.516;2023-04-09T03:11:56;94674.53;;;4.26;82.01
71107;BME280;58763;47.982;11.516;2023-04-09T03:14:23;94673.72;;;4.25;81.92
71107;BME280;58763;47.982;11.516;2023-04-09T03:16:50;94680.03;;;4.19;81.96
71107;BME280;58763;47.982;11.516;2023-04-09T03:19:15;94671.19;;;4.18;82.37
71107;BME280;58763;47.982;11.516;2023-04-09T03:21:41;94666.78;;;4.12;82.37
71107;BME280;58763;47.982;11.516;2023-04-09T03:24:08;94665.50;;;4.15;82.48
71107;BME280;58763;47.982;11.516;2023-04-09T03:26:33;94666.06;;;4.05;82.68
71107;BME280;58763;47.982;11.516;2023-04-09T03:29:03;94663.16;;;4.07;82.64
71107;BME280;58763;47.982;11.516;2023-04-09T03:31:29;94671.75;;;4.09;82.37
71107;BME280;58763;47.982;11.516;2023-04-09T03:33:55;94673.03;;;4.06;83.07
71107;BME280;58763;47.982;11.516;2023-04-09T03:36:20;94665.25;;;4.05;82.85
71107;BME280;58763;47.982;11.516;2023-04-09T03:38:46;94663.97;;;4.07;82.66
71107;BME280;58763;47.982;11.516;2023-04-09T03:41:14;94665.38;;;4.10;82.55
71107;BME280;58763;47.982;11.516;2023-04-09T03:43:40;94663.72;;;4.09;82.67
71107;BME280;58763;47.982;11.516;2023-04-09T03:46:13;94671.19;;;4.07;82.67
71107;BME280;58763;47.982;11.516;2023-04-09T03:48:39;94670.03;;;4.03;82.66
71107;BME280;58763;47.982;11.516;2023-04-09T03:51:05;94661.44;;;4.01;82.36
71107;BME280;58763;47.982;11.516;2023-04-09T03:53:31;94665.13;;;4.00;82.74
71107;BME280;58763;47.982;11.516;2023-04-09T03:55:57;94654.69;;;3.98;83.27
71107;BME280;58763;47.982;11.516;2023-04-09T03:58:22;94658.06;;;4.05;82.99
71107;BME280;58763;47.982;11.516;2023-04-09T04:00:48;94671.88;;;4.02;82.98
71107;BME280;58763;47.982;11.516;2023-04-09T04:03:14;94678.50;;;3.88;83.26
71107;BME280;58763;47.982;11.516;2023-04-09T04:05:41;94688.97;;;3.90;83.80
71107;BME280;58763;47.982;11.516;2023-04-09T04:08:06;94682.47;;;3.86;83.94
71107;BME280;58763;47.982;11.516;2023-04-09T04:10:35;94687.34;;;3.89;83.96
71107;BME280;58763;47.982;11.516;2023-04-09T04:13:00;94691.91;;;4.00;83.34
71107;BME280;58763;47.982;11.516;2023-04-09T04:15:27;94690.03;;;3.89;83.78
71107;BME280;58763;47.982;11.516;2023-04-09T04:17:52;94691.91;;;3.88;83.88
71107;BME280;58763;47.982;11.516;2023-04-09T04:20:18;94694.94;;;3.80;83.39
71107;BME280;58763;47.982;11.516;2023-04-09T04:22:44;94697.81;;;3.79;83.61
71107;BME280;58763;47.982;11.516;2023-04-09T04:25:09;94702.72;;;3.82;83.44
71107;BME280;58763;47.982;11.516;2023-04-09T04:27:35;94705.38;;;3.82;83.17
71107;BME280;58763;47.982;11.516;2023-04-09T04:30:00;94709.66;;;3.83;83.58
71107;BME280;58763;47.982;11.516;2023-04-09T04:32:26;94707.00;;;3.83;83.01
71107;BME280;58763;47.982;11.516;2023-04-09T04:34:52;94709.56;;;3.78;82.98
71107;BME280;58763;47.982;11.516;2023-04-09T04:37:19;94712.94;;;3.85;82.38
71107;BME280;58763;47.982;11.516;2023-04-09T04:39:44;94703.63;;;3.76;82.28
71107;BME280;58763;47.982;11.516;2023-04-09T04:42:10;94709.19;;;3.74;81.89
71107;BME280;58763;47.982;11.516;2023-04-09T04:44:35;94710.47;;;3.72;81.45
71107;BME280;58763;47.982;11.516;2023-04-09T04:47:01;94714.09;;;3.66;81.96
71107;BME280;58763;47.982;11.516;2023-04-09T04:49:26;94711.84;;;3.51;82.33
71107;BME280;58763;47.982;11.516;2023-04-09T04:51:52;94712.66;;;3.52;82.77
71107;BME280;58763;47.982;11.516;2023-04-09T04:54:17;94711.94;;;3.44;82.30
71107;BME280;58763;47.982;11.516;2023-04-09T04:56:43;94708.19;;;3.34;83.05
71107;BME280;58763;47.982;11.516;2023-04-09T04:59:08;94705.50;;;3.34;83.26
71107;BME280;58763;47.982;11.516;2023-04-09T05:01:34;94705.50;;;3.34;83.04
71107;BME280;58763;47.982;11.516;2023-04-09T05:04:00;94701.44;;;3.31;83.11
71107;BME280;58763;47.982;11.516;2023-04-09T05:06:27;94696.88;;;3.20;83.63
71107;BME280;58763;47.982;11.516;2023-04-09T05:08:54;94691.41;;;3.15;83.77
71107;BME280;58763;47.982;11.516;2023-04-09T05:11:23;94687.00;;;3.21;83.52
71107;BME280;58763;47.982;11.516;2023-04-09T05:13:49;94681.69;;;3.32;83.05
71107;BME280;58763;47.982;11.516;2023-04-09T05:16:19;94686.44;;;3.30;83.05
71107;BME280;58763;47.982;11.516;2023-04-09T05:18:45;94683.78;;;3.30;83.03
71107;BME280;58763;47.982;11.516;2023-04-09T05:21:11;94692.03;;;3.29;82.93
71107;BME280;58763;47.982;11.516;2023-04-09T05:23:37;94718.75;;;3.29;83.19
71107;BME280;58763;47.982;11.516;2023-04-09T05:26:02;94719.34;;;3.31;82.89
71107;BME280;58763;47.982;11.516;2023-04-09T05:28:28;94717.31;;;3.15;82.68
71107;BME280;58763;47.982;11.516;2023-04-09T05:30:53;94725.19;;;3.10;82.71
71107;BME280;58763;47.982;11.516;2023-04-09T05:33:19;94733.31;;;3.03;83.37
71107;BME280;58763;47.982;11.516;2023-04-09T05:35:45;94730.63;;;3.03;83.75
71107;BME280;58763;47.982;11.516;2023-04-09T05:38:10;94722.16;;;3.06;83.63
71107;BME280;58763;47.982;11.516;2023-04-09T05:40:37;94726.84;;;3.22;83.31
71107;BME280;58763;47.982;11.516;2023-04-09T05:43:03;94729.53;;;3.22;83.29
71107;BME280;58763;47.982;11.516;2023-04-09T05:45:28;94730.44;;;3.16;83.63
71107;BME280;58763;47.982;11.516;2023-04-09T05:47:54;94733.69;;;3.18;83.40
71107;BME280;58763;47.982;11.516;2023-04-09T05:50:19;94733.59;;;3.25;83.41
71107;BME280;58763;47.982;11.516;2023-04-09T05:52:45;94729.31;;;3.24;83.08
71107;BME280;58763;47.982;11.516;2023-04-09T05:55:11;94731.31;;;3.28;83.76
71107;BME280;58763;47.982;11.516;2023-04-09T05:57:36;94732.47;;;3.32;84.10
71107;BME280;58763;47.982;11.516;2023-04-09T06:00:02;94732.16;;;3.40;84.03
71107;BME280;58763;47.982;11.516;2023-04-09T06:02:28;94727.88;;;3.51;83.98
71107;BME280;58763;47.982;11.516;2023-04-09T06:04:54;94737.56;;;3.64;83.64
71107;BME280;58763;47.982;11.516;2023-04-09T06:07:21;94725.50;;;3.73;83.84
71107;BME280;58763;47.982;11.516;2023-04-09T06:09:46;94732.38;;;3.80;83.61
71107;BME280;58763;47.982;11.516;2023-04-09T06:12:12;94739.81;;;3.90;83.73
71107;BME280;58763;47.982;11.516;2023-04-09T06:14:38;94729.00;;;3.85;83.99
71107;BME280;58763;47.982;11.516;2023-04-09T06:17:04;94732.59;;;3.79;84.48
71107;BME280;58763;47.982;11.516;2023-04-09T06:19:29;94727.81;;;3.81;84.38
71107;BME280;58763;47.982;11.516;2023-04-09T06:21:55;94731.78;;;3.90;84.30
71107;BME280;58763;47.982;11.516;2023-04-09T06:24:21;94733.66;;;3.89;84.52
71107;BME280;58763;47.982;11.516;2023-04-09T06:26:47;94727.03;;;3.92;84.67
71107;BME280;58763;47.982;11.516;2023-04-09T06:29:12;94733.19;;;3.92;84.94
71107;BME280;58763;47.982;11.516;2023-04-09T06:31:38;94733.78;;;3.94;85.29
71107;BME280;58763;47.982;11.516;2023-04-09T06:34:04;94738.31;;;3.94;85.19
71107;BME280;58763;47.982;11.516;2023-04-09T06:36:29;94748.53;;;3.97;85.80
71107;BME280;58763;47.982;11.516;2023-04-09T06:38:55;94744.25;;;4.07;85.54
71107;BME280;58763;47.982;11.516;2023-04-09T06:41:22;94750.78;;;4.11;85.42
71107;BME280;58763;47.982;11.516;2023-04-09T06:43:48;94753.44;;;4.23;85.09
71107;BME280;58763;47.982;11.516;2023-04-09T06:46:14;94755.91;;;4.25;84.89
71107;BME280;58763;47.982;11.516;2023-04-09T06:48:42;94757.66;;;4.31;85.19
71107;BME280;58763;47.982;11.516;2023-04-09T06:51:09;94755.22;;;4.29;85.83
71107;BME280;58763;47.982;11.516;2023-04-09T06:53:36;94763.81;;;4.31;86.64
71107;BME280;58763;47.982;11.516;2023-04-09T06:56:02;94751.25;;;4.43;86.54
71107;BME280;58763;47.982;11.516;2023-04-09T06:58:27;94752.53;;;4.41;87.09
71107;BME280;58763;47.982;11.516;2023-04-09T07:00:53;94751.81;;;4.57;83.88
71107;BME280;58763;47.982;11.516;2023-04-09T07:03:19;94749.34;;;4.67;84.97
71107;BME280;58763;47.982;11.516;2023-04-09T07:05:45;94758.41;;;4.89;84.49
71107;BME280;58763;47.982;11.516;2023-04-09T07:08:10;94759.91;;;4.97;81.50
71107;BME280;58763;47.982;11.516;2023-04-09T07:10:36;94759.41;;;5.00;81.09
71107;BME280;58763;47.982;11.516;2023-04-09T07:13:02;94764.22;;;5.26;82.54
71107;BME280;58763;47.982;11.516;2023-04-09T07:15:28;94767.78;;;5.43;82.22
71107;BME280;58763;47.982;11.516;2023-04-09T07:17:54;94773.16;;;5.71;80.17
71107;BME280;58763;47.982;11.516;2023-04-09T07:20:22;94767.22;;;5.97;79.56
71107;BME280;58763;47.982;11.516;2023-04-09T07:22:47;94764.59;;;6.36;78.45
71107;BME280;58763;47.982;11.516;2023-04-09T07:25:14;94763.84;;;6.57;75.54
71107;BME280;58763;47.982;11.516;2023-04-09T07:27:39;94768.44;;;6.78;76.84
71107;BME280;58763;47.982;11.516;2023-04-09T07:30:05;94762.97;;;6.89;72.73
71107;BME280;58763;47.982;11.516;2023-04-09T07:32:31;94766.69;;;6.88;71.49
71107;BME280;58763;47.982;11.516;2023-04-09T07:34:57;94771.63;;;7.13;72.81
71107;BME280;58763;47.982;11.516;2023-04-09T07:37:23;94766.03;;;7.63;72.26
71107;BME280;58763;47.982;11.516;2023-04-09T07:39:49;94777.66;;;7.68;70.00
71107;BME280;58763;47.982;11.516;2023-04-09T07:42:15;94770.06;;;7.65;71.32
71107;BME280;58763;47.982;11.516;2023-04-09T07:44:41;94772.63;;;7.77;69.09
71107;BME280;58763;47.982;11.516;2023-04-09T07:47:08;94769.66;;;7.52;68.87
71107;BME280;58763;47.982;11.516;2023-04-09T07:49:36;94764.47;;;7.45;69.35
71107;BME280;58763;47.982;11.516;2023-04-09T07:52:02;94771.16;;;7.64;70.79
71107;BME280;58763;47.982;11.516;2023-04-09T07:54:28;94770.97;;;8.03;70.36
71107;BME280;58763;47.982;11.516;2023-04-09T07:56:56;94767.94;;;8.21;67.58
71107;BME280;58763;47.982;11.516;2023-04-09T07:59:22;94766.56;;;8.18;65.75
71107;BME280;58763;47.982;11.516;2023-04-09T08:01:48;94772.50;;;7.89;66.31
71107;BME280;58763;47.982;11.516;2023-04-09T08:04:15;94769.56;;;7.68;68.23
71107;BME280;58763;47.982;11.516;2023-04-09T08:06:40;94778.31;;;8.07;70.21
71107;BME280;58763;47.982;11.516;2023-04-09T08:09:06;94775.25;;;8.25;68.09
71107;BME280;58763;47.982;11.516;2023-04-09T08:11:32;94774.75;;;8.28;64.70
71107;BME280;58763;47.982;11.516;2023-04-09T08:13:58;94768.63;;;8.33;64.51
71107;BME280;58763;47.982;11.516;2023-04-09T08:16:27;94772.31;;;7.74;64.92
71107;BME280;58763;47.982;11.516;2023-04-09T08:18:55;94771.50;;;7.46;65.98
71107;BME280;58763;47.982;11.516;2023-04-09T08:21:21;94767.63;;;7.37;66.43
71107;BME280;58763;47.982;11.516;2023-04-09T08:23:49;94778.81;;;7.51;67.53
71107;BME280;58763;47.982;11.516;2023-04-09T08:26:15;94779.97;;;7.82;66.28
71107;BME280;58763;47.982;11.516;2023-04-09T08:28:40;94773.09;;;7.96;65.30
71107;BME280;58763;47.982;11.516;2023-04-09T08:31:10;94772.63;;;8.04;67.00
71107;BME280;58763;47.982;11.516;2023-04-09T08:33:35;94778.44;;;8.22;64.69
71107;BME280;58763;47.982;11.516;2023-04-09T08:36:01;94781.69;;;8.24;64.23
71107;BME280;58763;47.982;11.516;2023-04-09T08:38:26;94783.41;;;8.67;64.91
71107;BME280;58763;47.982;11.516;2023-04-09T08:40:52;94777.13;;;8.98;64.57
71107;BME280;58763;47.982;11.516;2023-04-09T08:43:18;94784.09;;;8.84;60.62
71107;BME280;58763;47.982;11.516;2023-04-09T08:45:46;94787.59;;;8.90;61.49
71107;BME280;58763;47.982;11.516;2023-04-09T08:48:12;94781.44;;;8.94;62.24
71107;BME280;58763;47.982;11.516;2023-04-09T08:50:38;94786.22;;;8.82;60.91
71107;BME280;58763;47.982;11.516;2023-04-09T08:53:05;94790.72;;;8.72;61.53
71107;BME280;58763;47.982;11.516;2023-04-09T08:55:32;94785.69;;;8.85;61.69
71107;BME280;58763;47.982;11.516;2023-04-09T08:58:05;94783.06;;;8.95;62.29
71107;BME280;58763;47.982;11.516;2023-04-09T09:00:35;94779.59;;;9.00;60.15
71107;BME280;58763;47.982;11.516;2023-04-09T09:03:03;94772.03;;;9.02;61.61
71107;BME280;58763;47.982;11.516;2023-04-09T09:05:39;94778.63;;;9.21;60.49
71107;BME280;58763;47.982;11.516;2023-04-09T09:08:10;94779.47;;;8.85;59.46
71107;BME280;58763;47.982;11.516;2023-04-09T09:10:37;94782.09;;;8.70;60.87
71107;BME280;58763;47.982;11.516;2023-04-09T09:13:22;94784.47;;;8.66;61.09
71107;BME280;58763;47.982;11.516;2023-04-09T09:15:49;94777.16;;;8.62;60.42
71107;BME280;58763;47.982;11.516;2023-04-09T09:18:18;94783.69;;;8.71;61.20
71107;BME280;58763;47.982;11.516;2023-04-09T09:20:44;94780.84;;;8.87;61.58
71107;BME280;58763;47.982;11.516;2023-04-09T09:23:09;94770.69;;;8.99;61.96
71107;BME280;58763;47.982;11.516;2023-04-09T09:25:41;94783.75;;;9.23;60.93
71107;BME280;58763;47.982;11.516;2023-04-09T09:28:08;94778.03;;;9.09;58.68
71107;BME280;58763;47.982;11.516;2023-04-09T09:30:35;94772.81;;;8.97;60.71
71107;BME280;58763;47.982;11.516;2023-04-09T09:33:09;94779.03;;;8.98;61.35
71107;BME280;58763;47.982;11.516;2023-04-09T09:35:51;94779.84;;;8.98;61.30
71107;BME280;58763;47.982;11.516;2023-04-09T09:38:19;94775.56;;;9.02;61.29
71107;BME280;58763;47.982;11.516;2023-04-09T09:40:46;94777.13;;;8.93;61.37
71107;BME280;58763;47.982;11.516;2023-04-09T09:43:12;94782.72;;;8.87;60.94
71107;BME280;58763;47.982;11.516;2023-04-09T09:45:39;94775.72;;;8.86;60.82
71107;BME280;58763;47.982;11.516;2023-04-09T09:48:06;94781.34;;;8.79;60.89
71107;BME280;58763;47.982;11.516;2023-04-09T09:50:34;94783.50;;;8.82;60.16
71107;BME280;58763;47.982;11.516;2023-04-09T09:53:06;94784.59;;;8.81;62.07
71107;BME280;58763;47.982;11.516;2023-04-09T09:55:36;94774.41;;;8.88;61.50
71107;BME280;58763;47.982;11.516;2023-04-09T09:58:08;94778.47;;;8.91;61.68
71107;BME280;58763;47.982;11.516;2023-04-09T10:00:36;94776.53;;;8.86;60.37
71107;BME280;58763;47.982;11.516;2023-04-09T10:03:13;94779.25;;;8.86;61.30
71107;BME280;58763;47.982;11.516;2023-04-09T10:05:40;94780.31;;;8.85;57.97
71107;BME280;58763;47.982;11.516;2023-04-09T10:08:06;94784.28;;;8.78;61.36
71107;BME280;58763;47.982;11.516;2023-04-09T10:10:32;94776.47;;;8.76;61.26
71107;BME280;58763;47.982;11.516;2023-04-09T10:12:58;94774.97;;;8.95;62.73
71107;BME280;58763;47.982;11.516;2023-04-09T10:15:27;94783.94;;;9.06;59.12
71107;BME280;58763;47.982;11.516;2023-04-09T10:17:53;94790.53;;;9.30;61.52
71107;BME280;58763;47.982;11.516;2023-04-09T10:20:26;94783.78;;;9.28;59.46
71107;BME280;58763;47.982;11.516;2023-04-09T10:22:53;94786.78;;;9.36;59.75
71107;BME280;58763;47.982;11.516;2023-04-09T10:25:19;94786.00;;;9.46;57.58
71107;BME280;58763;47.982;11.516;2023-04-09T10:27:45;94789.28;;;9.53;58.56
71107;BME280;58763;47.982;11.516;2023-04-09T10:30:34;94785.75;;;9.52;58.01
71107;BME280;58763;47.982;11.516;2023-04-09T10:33:27;94779.59;;;9.52;58.68
71107;BME280;58763;47.982;11.516;2023-04-09T10:35:54;94781.78;;;9.65;59.28
71107;BME280;58763;47.982;11.516;2023-04-09T10:41:14;94776.59;;;9.53;55.99
71107;BME280;58763;47.982;11.516;2023-04-09T10:43:41;94779.03;;;9.55;57.10
71107;BME280;58763;47.982;11.516;2023-04-09T10:46:27;94780.13;;;9.54;58.95
71107;BME280;58763;47.982;11.516;2023-04-09T10:51:38;94778.91;;;10.02;57.26
71107;BME280;58763;47.982;11.516;2023-04-09T10:54:05;94779.25;;;10.30;57.13
71107;BME280;58763;47.982;11.516;2023-04-09T10:56:32;94770.59;;;10.54;56.36
71107;BME280;58763;47.982;11.516;2023-04-09T10:58:58;94772.50;;;10.43;54.43
71107;BME280;58763;47.982;11.516;2023-04-09T11:01:24;94768.44;;;10.25;52.60
71107;BME280;58763;47.982;11.516;2023-04-09T11:04:10;94765.22;;;10.33;52.20
71107;BME280;58763;47.982;11.516;2023-04-09T11:06:40;94769.53;;;10.55;54.34
71107;BME280;58763;47.982;11.516;2023-04-09T11:09:09;94773.03;;;10.70;52.91
71107;BME280;58763;47.982;11.516;2023-04-09T11:11:34;94768.97;;;10.73;54.39
71107;BME280;58763;47.982;11.516;2023-04-09T11:14:01;94761.06;;;11.06;52.75
71107;BME280;58763;47.982;11.516;2023-04-09T11:16:30;94755.09;;;11.25;53.51
71107;BME280;58763;47.982;11.516;2023-04-09T11:18:56;94761.78;;;11.42;51.30
71107;BME280;58763;47.982;11.516;2023-04-09T11:21:26;94756.38;;;11.37;49.39
71107;BME280;58763;47.982;11.516;2023-04-09T11:23:52;94756.38;;;11.37;50.93
71107;BME280;58763;47.982;11.516;2023-04-09T11:26:34;94760.50;;;11.25;49.68
71107;BME280;58763;47.982;11.516;2023-04-09T11:29:06;94765.16;;;10.94;49.84
71107;BME280;58763;47.982;11.516;2023-04-09T11:31:33;94755.72;;;10.76;49.94
71107;BME280;58763;47.982;11.516;2023-04-09T11:33:59;94758.44;;;10.51;50.70
71107;BME280;58763;47.982;11.516;2023-04-09T11:36:25;94758.16;;;10.63;52.55
71107;BME280;58763;47.982;11.516;2023-04-09T11:38:54;94760.34;;;10.66;51.95
71107;BME280;58763;47.982;11.516;2023-04-09T11:41:37;94757.63;;;10.25;51.75
71107;BME280;58763;47.982;11.516;2023-04-09T11:44:03;94768.41;;;10.10;53.13
71107;BME280;58763;47.982;11.516;2023-04-09T11:46:34;94765.94;;;10.04;55.25
71107;BME280;58763;47.982;11.516;2023-04-09T11:49:00;94769.44;;;9.99;54.58
71107;BME280;58763;47.982;11.516;2023-04-09T11:51:26;94769.19;;;10.01;54.83
71107;BME280;58763;47.982;11.516;2023-04-09T11:53:52;94772.63;;;9.81;55.80
71107;BME280;58763;47.982;11.516;2023-04-09T11:56:19;94774.50;;;9.70;55.61
71107;BME280;58763;47.982;11.516;2023-04-09T11:58:45;94778.25;;;9.54;56.39
71107;BME280;58763;47.982;11.516;2023-04-09T12:01:12;94770.91;;;9.50;56.58
71107;BME280;58763;47.982;11.516;2023-04-09T12:03:38;94776.63;;;9.58;56.66
71107;BME280;58763;47.982;11.516;2023-04-09T12:06:05;94782.78;;;9.44;57.12
71107;BME280;58763;47.982;11.516;2023-04-09T12:08:35;94776.53;;;9.38;56.40
71107;BME280;58763;47.982;11.516;2023-04-09T12:11:11;94788.16;;;9.39;56.98
71107;BME280;58763;47.982;11.516;2023-04-09T12:13:38;94790.03;;;9.38;56.97
71107;BME280;58763;47.982;11.516;2023-04-09T12:16:13;94781.69;;;9.50;57.17
71107;BME280;58763;47.982;11.516;2023-04-09T12:18:39;94777.94;;;9.51;56.99
71107;BME280;58763;47.982;11.516;2023-04-09T12:21:05;94780.41;;;9.62;57.97
71107;BME280;58763;47.982;11.516;2023-04-09T12:23:31;94778.03;;;9.81;58.14
71107;BME280;58763;47.982;11.516;2023-04-09T12:25:58;94777.28;;;9.96;57.75
71107;BME280;58763;47.982;11.516;2023-04-09T12:28:27;94781.84;;;9.95;56.30
71107;BME280;58763;47.982;11.516;2023-04-09T12:30:53;94777.25;;;9.91;55.75
71107;BME280;58763;47.982;11.516;2023-04-09T12:33:19;94786.19;;;9.96;55.45
71107;BME280;58763;47.982;11.516;2023-04-09T12:35:45;94771.09;;;10.05;56.63
71107;BME280;58763;47.982;11.516;2023-04-09T12:38:11;94771.94;;;10.16;56.64
71107;BME280;58763;47.982;11.516;2023-04-09T12:40:37;94774.38;;;10.12;55.58
71107;BME280;58763;47.982;11.516;2023-04-09T12:43:03;94770.31;;;10.20;55.31
71107;BME280;58763;47.982;11.516;2023-04-09T12:45:29;94774.59;;;10.11;56.18
71107;BME280;58763;47.982;11.516;2023-04-09T12:47:55;94773.03;;;10.15;56.63
71107;BME280;58763;47.982;11.516;2023-04-09T12:50:21;94772.47;;;10.23;56.85
71107;BME280;58763;47.982;11.516;2023-04-09T12:52:47;94771.88;;;10.01;55.52
71107;BME280;58763;47.982;11.516;2023-04-09T12:55:13;94769.69;;;9.93;56.65
71107;BME280;58763;47.982;11.516;2023-04-09T12:57:42;94765.72;;;10.15;56.95
71107;BME280;58763;47.982;11.516;2023-04-09T13:00:09;94761.69;;;10.33;56.47
71107;BME280;58763;47.982;11.516;2023-04-09T13:02:34;94768.44;;;10.46;56.11
71107;BME280;58763;47.982;11.516;2023-04-09T13:05:00;94768.44;;;10.76;56.18
71107;BME280;58763;47.982;11.516;2023-04-09T13:07:26;94761.13;;;10.86;54.00
71107;BME280;58763;47.982;11.516;2023-04-09T13:09:54;94761.09;;;10.91;53.47
71107;BME280;58763;47.982;11.516;2023-04-09T13:12:20;94764.06;;;10.95;55.08
71107;BME280;58763;47.982;11.516;2023-04-09T13:14:47;94762.16;;;11.00;54.68
71107;BME280;58763;47.982;11.516;2023-04-09T13:17:13;94767.53;;;11.16;53.81
71107;BME280;58763;47.982;11.516;2023-04-09T13:19:39;94763.00;;;11.01;53.07